Time;durP1;ratioP1;P1;durP2;ratioP2;P2;SDS_P1;SDS_P2;PMS_P1;PMS_P2;Temp;Humidity;BMP_temperature;BMP_pressure;BME280_temperature;BME280_humidity;BME280_pressure;Samples;Min_cycle;Max_cycle;Signal;HPM_P1;HPM_P2
2023/11/22 00:00:30;;;;;;;3.85;3.13;;;24.90;99.90;;;;;;5032040;28;20097;-47
2023/11/22 00:02:56;;;;;;;3.25;2.95;;;24.90;99.90;;;;;;5029081;28;20510;-48
2023/11/22 00:05:22;;;;;;;4.78;3.60;;;24.80;99.90;;;;;;5029755;28;20068;-47
2023/11/22 00:07:48;;;;;;;5.00;3.40;;;24.80;99.90;;;;;;5011976;28;20026;-49
2023/11/22 00:10:13;;;;;;;6.80;4.00;;;24.80;99.90;;;;;;5023319;28;20060;-48
2023/11/22 00:12:39;;;;;;;4.10;3.28;;;24.80;99.90;;;;;;5015546;28;20029;-49
2023/11/22 00:15:07;;;;;;;4.75;3.65;;;24.80;99.90;;;;;;5031790;28;20014;-49
2023/11/22 00:17:35;;;;;;;;;;;24.80;99.90;;;;;;5020883;28;20563;-48
2023/11/22 00:20:05;;;;;;;5.93;3.67;;;24.80;99.90;;;;;;5024006;28;19905;-48
2023/11/22 00:22:32;;;;;;;5.95;3.80;;;24.70;99.90;;;;;;5019418;28;20504;-48
2023/11/22 00:24:58;;;;;;;5.13;3.63;;;24.70;99.90;;;;;;5014936;28;20112;-47
2023/11/22 00:27:25;;;;;;;3.93;3.53;;;24.70;99.90;;;;;;5025042;28;20025;-48
2023/11/22 00:29:52;;;;;;;4.38;3.28;;;24.70;99.90;;;;;;5022358;28;20497;-48
2023/11/22 00:32:18;;;;;;;4.68;3.28;;;24.70;99.90;;;;;;5010258;28;20026;-49
2023/11/22 00:34:44;;;;;;;3.75;3.22;;;24.70;99.90;;;;;;5031171;28;20029;-48
2023/11/22 00:37:10;;;;;;;4.95;3.47;;;24.70;99.90;;;;;;5021562;28;20022;-48
2023/11/22 00:39:37;;;;;;;3.58;2.95;;;24.60;99.90;;;;;;5015242;28;20033;-48
2023/11/22 00:42:03;;;;;;;7.18;3.22;;;24.60;99.90;;;;;;5010947;28;20026;-47
2023/11/22 00:44:30;;;;;;;3.80;3.17;;;24.60;99.90;;;;;;5025007;28;20417;-47
2023/11/22 00:46:57;;;;;;;4.30;3.33;;;24.60;99.90;;;;;;5026331;28;20037;-48
2023/11/22 00:49:23;;;;;;;5.80;3.47;;;24.60;99.90;;;;;;5018105;28;20084;-47
2023/11/22 00:51:50;;;;;;;3.00;2.70;;;24.60;99.90;;;;;;5030756;28;20041;-48
2023/11/22 00:54:17;;;;;;;6.53;3.45;;;24.60;99.90;;;;;;5018754;28;20022;-46
2023/11/22 00:56:42;;;;;;;5.20;3.47;;;24.60;99.90;;;;;;5024863;28;20417;-44
2023/11/22 00:59:08;;;;;;;4.18;3.05;;;24.50;99.90;;;;;;5027140;28;20021;-46
2023/11/22 01:01:34;;;;;;;4.40;3.03;;;24.50;99.90;;;;;;5023841;28;20125;-46
2023/11/22 01:04:00;;;;;;;5.10;3.30;;;24.50;99.90;;;;;;5033027;28;20470;-47
2023/11/22 01:06:26;;;;;;;2.88;2.58;;;24.50;99.90;;;;;;5013539;28;20038;-46
2023/11/22 01:08:52;;;;;;;3.97;2.75;;;24.50;99.90;;;;;;5033791;28;20021;-46
2023/11/22 01:11:18;;;;;;;5.38;3.00;;;24.50;99.90;;;;;;5005847;28;20033;-47
2023/11/22 01:13:44;;;;;;;4.13;3.05;;;24.50;99.90;;;;;;5024945;28;20108;-48
2023/11/22 01:16:10;;;;;;;3.72;2.70;;;24.50;99.90;;;;;;5011446;28;20993;-48
2023/11/22 01:18:36;;;;;;;4.93;2.90;;;24.50;99.90;;;;;;5018782;28;20029;-46
2023/11/22 01:21:05;;;;;;;4.43;2.80;;;24.40;99.90;;;;;;5004952;28;20033;-46
2023/11/22 01:23:32;;;;;;;8.65;2.95;;;24.40;99.90;;;;;;5027388;28;20053;-48
2023/11/22 01:25:59;;;;;;;3.63;2.83;;;24.40;99.90;;;;;;5026165;28;20065;-47
2023/11/22 01:28:27;;;;;;;3.53;2.85;;;24.40;99.90;;;;;;5034820;28;20559;-48
2023/11/22 01:30:54;;;;;;;4.78;3.15;;;24.40;99.90;;;;;;5022127;28;20029;-47
2023/11/22 01:33:23;;;;;;;4.35;3.10;;;24.40;99.90;;;;;;5016807;28;20160;-46
2023/11/22 01:35:49;;;;;;;3.85;3.05;;;24.30;99.90;;;;;;5029148;28;20032;-50
2023/11/22 01:38:16;;;;;;;3.55;2.58;;;24.30;99.90;;;;;;5034659;28;20485;-49
2023/11/22 01:40:48;;;;;;;4.35;2.95;;;24.30;99.90;;;;;;5033470;28;20565;-48
2023/11/22 01:43:18;;;;;;;2.63;2.38;;;24.30;99.90;;;;;;5033247;28;20068;-48
2023/11/22 01:45:45;;;;;;;5.00;2.75;;;24.30;99.90;;;;;;5030831;28;20037;-48
2023/11/22 01:48:12;;;;;;;5.32;3.15;;;24.30;99.90;;;;;;5033204;28;20382;-47
2023/11/22 01:50:42;;;;;;;6.03;2.92;;;24.30;99.90;;;;;;5034152;28;20410;-48
2023/11/22 01:53:10;;;;;;;3.80;2.53;;;24.30;99.90;;;;;;5034513;28;20029;-48
2023/11/22 01:55:37;;;;;;;4.05;2.85;;;24.30;99.90;;;;;;5034202;28;20087;-47
2023/11/22 01:58:03;;;;;;;3.15;2.38;;;24.30;99.90;;;;;;5034600;28;20022;-48
2023/11/22 02:00:35;;;;;;;3.73;2.63;;;24.20;99.90;;;;;;5034188;28;20018;-47
2023/11/22 02:03:02;;;;;;;3.08;2.42;;;24.30;99.90;;;;;;5033293;28;20069;-48
2023/11/22 02:05:27;;;;;;;2.15;1.95;;;24.20;99.90;;;;;;5034211;28;20095;-49
2023/11/22 02:07:54;;;;;;;3.40;2.75;;;24.20;99.90;;;;;;5034343;28;20899;-48
2023/11/22 02:10:20;;;;;;;3.30;2.20;;;24.20;99.90;;;;;;5034171;28;20377;-49
2023/11/22 02:12:46;;;;;;;2.55;2.17;;;24.20;99.90;;;;;;5034357;28;20262;-48
2023/11/22 02:15:12;;;;;;;4.15;2.40;;;24.20;99.90;;;;;;5033354;28;20041;-49
2023/11/22 02:17:39;;;;;;;2.78;2.30;;;24.20;99.90;;;;;;5034107;28;20109;-49
2023/11/22 02:20:08;;;;;;;2.80;1.90;;;24.20;99.90;;;;;;5016288;28;20026;-49
2023/11/22 02:22:42;;;;;;;4.00;2.03;;;24.10;99.90;;;;;;5033430;28;20251;-49
2023/11/22 02:25:07;;;;;;;2.72;2.10;;;24.10;99.90;;;;;;5016212;28;20040;-49
2023/11/22 02:27:33;;;;;;;2.65;2.05;;;24.10;99.90;;;;;;5034130;28;20022;-49
2023/11/22 02:29:59;;;;;;;3.67;2.40;;;24.10;99.90;;;;;;5032796;28;20072;-48
2023/11/22 02:32:25;;;;;;;3.55;2.00;;;24.00;99.90;;;;;;5033103;28;20025;-49
2023/11/22 02:34:51;;;;;;;2.95;2.05;;;24.00;99.90;;;;;;5033558;28;20032;-48
2023/11/22 02:37:16;;;;;;;2.60;1.60;;;24.10;99.90;;;;;;5016196;28;20034;-48
2023/11/22 02:40:05;;;;;;;3.53;2.17;;;24.00;99.90;;;;;;5034011;28;20057;-48
2023/11/22 02:42:31;;;;;;;2.97;2.03;;;24.00;99.90;;;;;;5033536;28;20018;-49
2023/11/22 02:44:57;;;;;;;3.15;2.05;;;24.00;99.90;;;;;;5033938;28;20454;-48
2023/11/22 02:47:23;;;;;;;3.70;2.17;;;24.00;99.90;;;;;;5033945;28;20116;-48
2023/11/22 02:49:49;;;;;;;2.90;2.17;;;24.00;99.90;;;;;;5034071;28;20083;-48
2023/11/22 02:52:16;;;;;;;2.25;1.60;;;23.90;99.90;;;;;;5033627;28;20033;-48
2023/11/22 02:54:47;;;;;;;2.40;1.70;;;23.90;99.90;;;;;;5033640;28;20083;-48
2023/11/22 02:57:13;;;;;;;3.20;1.73;;;23.90;99.90;;;;;;5028805;28;20201;-48
2023/11/22 02:59:43;;;;;;;2.47;1.65;;;23.90;99.90;;;;;;5019403;28;20083;-49
2023/11/22 03:02:08;;;;;;;4.03;1.70;;;23.80;99.90;;;;;;5029954;28;20050;-49
2023/11/22 03:04:34;;;;;;;3.22;1.75;;;23.80;99.90;;;;;;5033237;28;20026;-48
2023/11/22 03:07:00;;;;;;;3.03;1.67;;;23.80;99.90;;;;;;5033234;28;20087;-47
2023/11/22 03:09:26;;;;;;;3.90;2.13;;;23.80;99.90;;;;;;5033218;28;20018;-48
2023/11/22 03:11:54;;;;;;;2.15;1.80;;;23.80;99.90;;;;;;5033715;28;20021;-48
2023/11/22 03:14:21;;;;;;;1.58;1.40;;;23.70;99.90;;;;;;5032917;28;20386;-49
2023/11/22 03:16:48;;;;;;;2.05;1.60;;;23.70;99.90;;;;;;5033124;28;20053;-49
2023/11/22 03:19:14;;;;;;;2.95;2.25;;;23.70;99.90;;;;;;5032996;28;20113;-48
2023/11/22 03:21:44;;;;;;;2.05;1.85;;;23.70;99.90;;;;;;5033106;28;20080;-48
2023/11/22 03:24:10;;;;;;;3.42;1.80;;;23.70;99.90;;;;;;5032957;28;20018;-48
2023/11/22 03:26:36;;;;;;;2.50;1.70;;;23.70;99.90;;;;;;5032089;28;20030;-49
2023/11/22 03:29:02;;;;;;;2.05;1.50;;;23.70;99.90;;;;;;5032721;28;20047;-48
2023/11/22 03:31:28;;;;;;;2.08;1.42;;;23.70;99.90;;;;;;5032702;28;20080;-48
2023/11/22 03:33:57;;;;;;;2.90;1.73;;;23.60;99.90;;;;;;5030559;28;20091;-48
2023/11/22 03:36:24;;;;;;;2.50;1.60;;;23.60;99.90;;;;;;5032292;28;20034;-48
2023/11/22 03:38:50;;;;;;;3.10;1.10;;;23.60;99.90;;;;;;5032041;28;20025;-49
2023/11/22 03:41:19;;;;;;;3.05;1.67;;;23.60;99.90;;;;;;5014497;28;20027;-48
2023/11/22 03:43:45;;;;;;;1.83;1.40;;;23.60;99.90;;;;;;5031445;28;20021;-48
2023/11/22 03:46:11;;;;;;;2.92;1.30;;;23.60;99.90;;;;;;5031795;28;20520;-48
2023/11/22 03:48:37;;;;;;;1.48;1.30;;;23.60;99.90;;;;;;5031708;28;20029;-48
2023/11/22 03:51:03;;;;;;;2.30;1.60;;;23.50;99.90;;;;;;5031913;28;20025;-48
2023/11/22 03:53:29;;;;;;;2.17;1.27;;;23.50;99.90;;;;;;5031310;28;20017;-50
2023/11/22 03:55:55;;;;;;;2.00;1.42;;;23.50;99.90;;;;;;5014526;28;20572;-48
2023/11/22 03:58:20;;;;;;;1.65;1.23;;;23.50;99.90;;;;;;5030883;28;20120;-48
2023/11/22 04:00:47;;;;;;;2.00;1.17;;;23.50;99.90;;;;;;5031601;28;20101;-48
2023/11/22 04:03:12;;;;;;;1.50;1.13;;;23.50;99.90;;;;;;5031786;28;20560;-48
2023/11/22 04:05:38;;;;;;;2.95;1.58;;;23.40;99.90;;;;;;5031550;28;20033;-48
2023/11/22 04:08:04;;;;;;;2.53;1.60;;;23.40;99.90;;;;;;5030466;28;20377;-49
2023/11/22 04:10:30;;;;;;;1.75;1.33;;;23.40;99.90;;;;;;5031052;28;20105;-48
2023/11/22 04:12:56;;;;;;;1.90;1.40;;;23.40;99.90;;;;;;5031481;28;20026;-48
2023/11/22 04:15:23;;;;;;;2.55;1.63;;;23.40;99.90;;;;;;5031515;28;20025;-48
2023/11/22 04:17:49;;;;;;;1.85;1.50;;;23.40;99.90;;;;;;5030850;28;20025;-48
2023/11/22 04:20:14;;;;;;;1.60;1.10;;;23.40;99.90;;;;;;5030302;28;20355;-48
2023/11/22 04:22:41;;;;;;;2.15;1.40;;;23.40;99.90;;;;;;5013878;28;20029;-48
2023/11/22 04:25:08;;;;;;;2.58;1.33;;;23.30;99.90;;;;;;5030778;28;20056;-48
2023/11/22 04:27:34;;;;;;;2.27;1.60;;;23.30;99.90;;;;;;5030630;28;20469;-48
2023/11/22 04:30:00;;;;;;;2.00;1.55;;;23.30;99.90;;;;;;5031624;28;20032;-48
2023/11/22 04:32:26;;;;;;;2.40;1.42;;;23.30;99.90;;;;;;5031141;28;20091;-48
2023/11/22 04:34:52;;;;;;;1.77;1.30;;;23.30;99.90;;;;;;5030046;28;20018;-48
2023/11/22 04:37:18;;;;;;;1.80;1.70;;;23.30;99.90;;;;;;5029578;28;20025;-48
2023/11/22 04:39:44;;;;;;;1.98;1.20;;;23.30;99.90;;;;;;5030707;28;20029;-48
2023/11/22 04:42:09;;;;;;;3.50;1.30;;;23.30;99.90;;;;;;5031365;28;20050;-48
2023/11/22 04:44:35;;;;;;;2.15;1.20;;;23.20;99.90;;;;;;5030871;28;20045;-48
2023/11/22 04:47:01;;;;;;;1.48;1.15;;;23.20;99.90;;;;;;5029999;28;20018;-47
2023/11/22 04:49:27;;;;;;;3.25;1.30;;;23.20;99.90;;;;;;5031384;28;20423;-47
2023/11/22 04:51:53;;;;;;;1.65;1.20;;;23.20;99.90;;;;;;5030384;28;20032;-47
2023/11/22 04:54:18;;;;;;;1.83;1.20;;;23.10;99.90;;;;;;5011302;28;20029;-47
2023/11/22 04:56:44;;;;;;;3.25;1.70;;;23.20;99.90;;;;;;5029118;28;20033;-47
2023/11/22 04:59:10;;;;;;;1.88;1.13;;;23.10;99.90;;;;;;5030396;28;20025;-47
2023/11/22 05:01:36;;;;;;;2.63;1.00;;;23.10;99.90;;;;;;5031102;28;20072;-48
2023/11/22 05:04:02;;;;;;;1.63;1.00;;;23.10;99.90;;;;;;5029219;28;20462;-48
2023/11/22 05:06:29;;;;;;;2.08;1.27;;;23.10;99.90;;;;;;5031396;28;20044;-48
2023/11/22 05:08:54;;;;;;;1.45;1.25;;;23.10;99.90;;;;;;5029598;28;20029;-48
2023/11/22 05:11:21;;;;;;;1.27;0.90;;;23.10;99.90;;;;;;5029643;28;20385;-48
2023/11/22 05:13:47;;;;;;;2.10;1.33;;;23.10;99.90;;;;;;5028996;28;20014;-48
2023/11/22 05:16:13;;;;;;;1.20;1.10;;;23.10;99.90;;;;;;5030901;28;20032;-48
2023/11/22 05:18:39;;;;;;;1.77;1.00;;;23.10;99.90;;;;;;5029923;28;20389;-48
2023/11/22 05:21:05;;;;;;;2.85;1.17;;;23.00;99.90;;;;;;5030550;28;20026;-47
2023/11/22 05:23:37;;;;;;;1.88;1.20;;;23.10;99.90;;;;;;5012806;28;20026;-49
2023/11/22 05:26:04;;;;;;;1.67;1.08;;;23.10;99.90;;;;;;5030866;28;20025;-49
2023/11/22 05:28:31;;;;;;;1.52;0.93;;;23.00;99.90;;;;;;5030150;28;20014;-48
2023/11/22 05:30:57;;;;;;;2.20;1.30;;;23.00;99.90;;;;;;5029954;28;20042;-47
2023/11/22 05:33:23;;;;;;;2.03;1.17;;;23.00;99.90;;;;;;5030863;28;20030;-48
2023/11/22 05:35:49;;;;;;;1.38;1.20;;;23.00;99.90;;;;;;5030723;28;20018;-47
2023/11/22 05:38:15;;;;;;;1.23;1.00;;;23.00;99.90;;;;;;5029343;28;20028;-48
2023/11/22 05:40:42;;;;;;;1.35;1.25;;;23.00;99.90;;;;;;5028973;28;20037;-48
2023/11/22 05:43:09;;;;;;;;;;;23.00;99.90;;;;;;5031086;28;20389;-48
2023/11/22 05:45:35;;;;;;;2.93;1.00;;;23.00;99.90;;;;;;5030712;28;20324;-47
2023/11/22 05:48:01;;;;;;;1.65;0.95;;;23.00;99.90;;;;;;5030431;28;20017;-47
2023/11/22 05:50:27;;;;;;;2.90;1.05;;;23.00;99.90;;;;;;5030707;28;20036;-47
2023/11/22 05:52:53;;;;;;;4.20;1.27;;;22.90;99.90;;;;;;5034060;28;20373;-48
2023/11/22 05:55:18;;;;;;;2.15;1.00;;;22.90;99.90;;;;;;5033488;28;20037;-48
2023/11/22 05:57:44;;;;;;;1.83;1.30;;;22.90;99.90;;;;;;5032930;28;20101;-48
2023/11/22 06:00:12;;;;;;;2.05;1.42;;;23.00;99.90;;;;;;5033785;28;20026;-47
2023/11/22 06:02:38;;;;;;;2.88;1.40;;;22.90;99.90;;;;;;5033888;28;20144;-47
2023/11/22 06:05:05;;;;;;;1.75;1.30;;;22.90;99.90;;;;;;5032265;28;20045;-48
2023/11/22 06:07:31;;;;;;;2.13;1.23;;;22.90;99.90;;;;;;5032900;28;20362;-48
2023/11/22 06:09:57;;;;;;;3.00;1.33;;;22.90;99.90;;;;;;5033767;28;20410;-47
2023/11/22 06:12:23;;;;;;;4.32;1.42;;;22.90;99.90;;;;;;5033755;28;20029;-47
2023/11/22 06:14:49;;;;;;;1.70;1.23;;;22.90;99.90;;;;;;5032816;28;20028;-47
2023/11/22 06:17:15;;;;;;;2.15;1.30;;;22.90;99.90;;;;;;5033071;28;20435;-48
2023/11/22 06:19:41;;;;;;;3.45;1.27;;;22.90;99.90;;;;;;5015821;28;20496;-48
2023/11/22 06:22:07;;;;;;;3.42;1.15;;;22.80;99.90;;;;;;5033196;28;20021;-48
2023/11/22 06:24:35;;;;;;;2.13;1.50;;;22.80;99.90;;;;;;5033476;28;20079;-48
2023/11/22 06:27:02;;;;;;;1.70;1.30;;;22.90;99.90;;;;;;5033132;28;20029;-48
2023/11/22 06:29:29;;;;;;;2.38;1.83;;;22.80;99.90;;;;;;5033621;28;20052;-48
2023/11/22 06:31:55;;;;;;;3.17;1.52;;;22.80;99.90;;;;;;5032304;28;20029;-48
2023/11/22 06:34:20;;;;;;;2.75;1.42;;;22.80;99.90;;;;;;5032490;28;20084;-47
2023/11/22 06:36:46;;;;;;;1.65;1.23;;;22.80;99.90;;;;;;5033430;28;20030;-48
2023/11/22 06:39:13;;;;;;;3.17;1.60;;;22.80;99.90;;;;;;5032247;28;20053;-47
2023/11/22 06:41:41;;;;;;;1.98;1.48;;;22.80;99.90;;;;;;5032375;28;20018;-47
2023/11/22 06:44:07;;;;;;;2.75;1.55;;;22.80;99.90;;;;;;5031538;28;20049;-47
2023/11/22 06:46:33;;;;;;;4.53;1.42;;;22.80;99.90;;;;;;5032989;28;20092;-48
2023/11/22 06:48:58;;;;;;;1.70;1.20;;;22.80;99.90;;;;;;5031961;28;20022;-48
2023/11/22 06:51:24;;;;;;;5.18;1.60;;;22.80;99.90;;;;;;5032078;28;20635;-48
2023/11/22 06:53:52;;;;;;;2.75;1.90;;;22.80;99.90;;;;;;5031747;28;20027;-48
2023/11/22 06:56:18;;;;;;;1.75;1.55;;;22.80;99.90;;;;;;5032250;28;20033;-48
2023/11/22 06:58:44;;;;;;;2.05;1.42;;;22.80;99.90;;;;;;5031709;28;20105;-48
2023/11/22 07:01:10;;;;;;;2.78;1.40;;;22.80;99.90;;;;;;5031816;28;20116;-48
2023/11/22 07:03:37;;;;;;;1.95;1.33;;;22.80;99.90;;;;;;5033040;28;20090;-48
2023/11/22 07:06:04;;;;;;;2.50;1.30;;;22.80;99.90;;;;;;5031831;28;20041;-48
2023/11/22 07:08:30;;;;;;;2.90;1.35;;;22.70;99.90;;;;;;5031438;28;20025;-48
2023/11/22 07:10:56;;;;;;;2.72;1.30;;;22.70;99.90;;;;;;5032170;28;20021;-48
2023/11/22 07:13:24;;;;;;;4.18;1.60;;;22.70;99.90;;;;;;5032389;28;20394;-48
2023/11/22 07:15:51;;;;;;;3.28;1.25;;;22.70;99.90;;;;;;5031520;28;20149;-48
2023/11/22 07:18:17;;;;;;;2.85;1.98;;;22.70;99.90;;;;;;4997998;28;20056;-48
2023/11/22 07:20:43;;;;;;;3.95;1.17;;;22.70;99.90;;;;;;5014063;28;20061;-48
2023/11/22 07:23:13;;;;;;;3.70;1.23;;;22.70;99.90;;;;;;5014738;28;20026;-48
2023/11/22 07:25:39;;;;;;;2.00;1.25;;;22.70;99.90;;;;;;5031703;28;20025;-48
2023/11/22 07:28:05;;;;;;;2.38;1.23;;;22.70;99.90;;;;;;5031534;28;20104;-49
2023/11/22 07:30:33;;;;;;;2.92;1.20;;;22.80;99.90;;;;;;5031945;28;20497;-48
2023/11/22 07:32:59;;;;;;;2.42;1.45;;;22.80;99.90;;;;;;5030750;28;20108;-48
2023/11/22 07:35:27;;;;;;;1.50;1.00;;;22.80;99.90;;;;;;5030874;28;20188;-48
2023/11/22 07:37:54;;;;;;;1.63;1.10;;;22.80;99.90;;;;;;5030254;28;20040;-47
2023/11/22 07:40:21;;;;;;;1.98;1.40;;;22.80;99.90;;;;;;5031928;28;20025;-48
2023/11/22 07:42:49;;;;;;;3.30;1.67;;;22.90;99.90;;;;;;5032042;28;20025;-48
2023/11/22 07:45:15;;;;;;;2.45;1.30;;;22.90;99.90;;;;;;5030826;28;20474;-48
2023/11/22 07:47:43;;;;;;;3.42;1.50;;;22.90;99.90;;;;;;5031245;28;20025;-48
2023/11/22 07:50:10;;;;;;;2.50;1.20;;;23.00;99.90;;;;;;5031854;28;20052;-48
2023/11/22 07:52:37;;;;;;;1.83;1.30;;;23.00;99.90;;;;;;5031633;28;20099;-48
2023/11/22 07:55:05;;;;;;;;;;;23.00;99.90;;;;;;5031871;28;20108;-48
2023/11/22 07:57:30;;;;;;;3.42;1.40;;;23.00;99.90;;;;;;5031539;28;19940;-48
2023/11/22 07:59:56;;;;;;;2.58;1.50;;;23.00;99.90;;;;;;5031341;28;20080;-48
2023/11/22 08:02:22;;;;;;;1.55;1.40;;;23.10;99.90;;;;;;5030247;28;20033;-49
2023/11/22 08:04:50;;;;;;;2.17;1.67;;;23.10;99.90;;;;;;5029716;28;20036;-48
2023/11/22 08:07:16;;;;;;;2.45;1.20;;;23.10;99.90;;;;;;5031654;28;20044;-48
2023/11/22 08:09:43;;;;;;;2.65;1.70;;;23.10;99.90;;;;;;5032033;28;20025;-48
2023/11/22 08:12:11;;;;;;;3.70;1.73;;;23.20;99.90;;;;;;5031163;28;20481;-48
2023/11/22 08:14:37;;;;;;;;;;;23.30;99.90;;;;;;5030984;28;20028;-48
2023/11/22 08:17:03;;;;;;;4.25;1.50;;;23.30;99.90;;;;;;5031438;28;19905;-48
2023/11/22 08:19:31;;;;;;;2.55;1.17;;;23.30;99.90;;;;;;5014153;28;20537;-48
2023/11/22 08:21:56;;;;;;;1.70;1.30;;;23.30;99.90;;;;;;5031025;28;20108;-48
2023/11/22 08:24:22;;;;;;;2.83;1.30;;;23.30;99.90;;;;;;5030621;28;20068;-49
2023/11/22 08:26:48;;;;;;;2.15;1.52;;;23.40;99.90;;;;;;5031280;28;20454;-48
2023/11/22 08:29:14;;;;;;;2.35;1.17;;;23.40;99.90;;;;;;5030422;28;20029;-48
2023/11/22 08:31:40;;;;;;;2.40;1.27;;;23.40;99.90;;;;;;5030667;28;20104;-48
2023/11/22 08:34:07;;;;;;;2.67;1.17;;;23.50;99.90;;;;;;5027781;28;20021;-48
2023/11/22 08:36:34;;;;;;;2.42;1.30;;;23.50;99.90;;;;;;5031534;28;20083;-48
2023/11/22 08:39:00;;;;;;;1.23;0.85;;;23.50;99.90;;;;;;5030699;28;20087;-49
2023/11/22 08:41:29;;;;;;;1.80;1.10;;;23.60;99.90;;;;;;5030509;28;20041;-48
2023/11/22 08:43:56;;;;;;;1.80;1.00;;;23.60;99.90;;;;;;5031162;28;20266;-49
2023/11/22 08:46:21;;;;;;;2.05;1.30;;;23.70;99.90;;;;;;5030889;28;20033;-49
2023/11/22 08:48:47;;;;;;;3.28;1.73;;;23.70;99.90;;;;;;5030713;28;20374;-48
2023/11/22 08:51:13;;;;;;;1.52;1.00;;;23.70;99.90;;;;;;5030588;28;20030;-49
2023/11/22 08:53:39;;;;;;;2.08;1.30;;;23.80;99.90;;;;;;5031314;28;20022;-49
2023/11/22 08:56:08;;;;;;;5.60;1.33;;;23.80;99.90;;;;;;5030750;28;20509;-48
2023/11/22 08:58:34;;;;;;;2.15;1.20;;;23.80;99.90;;;;;;5030263;28;20056;-49
2023/11/22 09:01:00;;;;;;;3.05;1.27;;;23.90;99.90;;;;;;5013476;28;20026;-48
2023/11/22 09:03:26;;;;;;;3.85;1.15;;;23.90;99.90;;;;;;5030942;28;20501;-48
2023/11/22 09:05:53;;;;;;;1.48;1.15;;;23.90;99.90;;;;;;5030201;28;20029;-49
2023/11/22 09:08:20;;;;;;;2.20;1.20;;;24.00;99.90;;;;;;5030338;28;20100;-48
2023/11/22 09:10:46;;;;;;;2.80;1.20;;;24.00;99.90;;;;;;5030852;28;20032;-49
2023/11/22 09:13:16;;;;;;;1.38;0.95;;;24.00;99.90;;;;;;5030536;28;20547;-49
2023/11/22 09:15:44;;;;;;;1.60;1.10;;;24.00;99.90;;;;;;5030513;28;20021;-49
2023/11/22 09:18:12;;;;;;;1.77;0.93;;;24.10;99.90;;;;;;5030546;28;20029;-49
2023/11/22 09:20:38;;;;;;;3.58;1.10;;;24.10;99.90;;;;;;5030977;28;20083;-48
2023/11/22 09:23:04;;;;;;;2.20;1.00;;;24.10;99.90;;;;;;5030827;28;20017;-49
2023/11/22 09:25:31;;;;;;;2.40;1.13;;;24.20;99.90;;;;;;5032220;28;20037;-48
2023/11/22 09:28:00;;;;;;;2.55;1.10;;;24.30;99.90;;;;;;5035037;28;20374;-49
2023/11/22 09:30:45;;;;;;;1.88;0.80;;;24.30;99.90;;;;;;5034411;28;20029;-49
2023/11/22 09:33:14;;;;;;;4.30;1.50;;;24.30;99.90;;;;;;5033962;28;20049;-49
2023/11/22 09:35:43;;;;;;;4.07;1.25;;;24.40;99.90;;;;;;5034052;28;20022;-48
2023/11/22 09:38:11;;;;;;;1.60;1.10;;;24.40;99.90;;;;;;5034526;28;20028;-49
2023/11/22 09:40:41;;;;;;;3.75;1.40;;;24.50;99.90;;;;;;5033479;28;20025;-49
2023/11/22 09:43:07;;;;;;;4.10;1.60;;;24.50;99.90;;;;;;5034284;28;20051;-49
2023/11/22 09:45:34;;;;;;;3.22;1.63;;;24.50;99.90;;;;;;5033546;28;20045;-49
2023/11/22 09:48:02;;;;;;;4.60;1.83;;;24.60;99.90;;;;;;5034185;28;20114;-49
2023/11/22 09:50:55;;;;;;;4.10;1.65;;;24.60;99.90;;;;;;5033242;28;20033;-48
2023/11/22 09:53:40;;;;;;;2.13;1.38;;;24.60;99.90;;;;;;5015989;28;20036;-48
2023/11/22 09:56:07;;;;;;;2.55;1.63;;;24.70;99.90;;;;;;5014276;28;20116;-49
2023/11/22 09:58:34;;;;;;;2.33;1.70;;;24.70;99.90;;;;;;5014995;28;20022;-49
2023/11/22 10:01:01;;;;;;;2.90;1.65;;;24.80;99.90;;;;;;5013376;28;20473;-49
2023/11/22 10:03:30;;;;;;;3.58;1.63;;;24.90;99.90;;;;;;5030421;28;20187;-49
2023/11/22 10:05:59;;;;;;;3.97;1.80;;;24.90;99.90;;;;;;5033766;28;20106;-49
2023/11/22 10:08:31;;;;;;;2.60;1.80;;;25.00;99.90;;;;;;5033502;28;20474;-49
2023/11/22 10:10:57;;;;;;;3.05;1.90;;;25.00;99.90;;;;;;5032685;28;20148;-48
2023/11/22 10:13:23;;;;;;;1.95;1.63;;;25.10;99.90;;;;;;5033994;28;20045;-48
2023/11/22 10:15:50;;;;;;;3.28;2.00;;;25.10;99.90;;;;;;5034002;28;20025;-48
2023/11/22 10:18:17;;;;;;;4.22;1.98;;;25.20;99.90;;;;;;5033280;28;20013;-48
2023/11/22 10:20:46;;;;;;;5.22;2.10;;;25.20;99.90;;;;;;5033234;28;20433;-48
2023/11/22 10:23:24;;;;;;;2.95;1.60;;;25.30;99.90;;;;;;5033281;28;20477;-48
2023/11/22 10:25:52;;;;;;;4.63;2.13;;;25.30;99.90;;;;;;5032090;28;20045;-48
2023/11/22 10:28:19;;;;;;;3.72;2.05;;;25.40;99.90;;;;;;5032122;28;20018;-48
2023/11/22 10:30:53;;;;;;;3.87;1.87;;;25.40;99.90;;;;;;5015257;28;20096;-48
2023/11/22 10:33:22;;;;;;;3.72;2.05;;;25.40;99.90;;;;;;5033336;28;20023;-49
2023/11/22 10:35:53;;;;;;;5.97;1.80;;;25.50;99.90;;;;;;5014933;28;20478;-49
2023/11/22 10:38:20;;;;;;;3.78;2.45;;;25.50;99.90;;;;;;5031516;28;20037;-49
2023/11/22 10:40:47;;;;;;;6.05;2.22;;;25.60;99.90;;;;;;5033149;28;20620;-49
2023/11/22 10:43:16;;;;;;;;;;;25.60;99.90;;;;;;5034339;28;20022;-49
2023/11/22 10:45:51;;;;;;;4.68;2.17;;;25.70;99.90;;;;;;5032378;28;19913;-49
2023/11/22 10:48:17;;;;;;;5.07;2.05;;;25.70;99.90;;;;;;5032575;28;20018;-48
2023/11/22 10:50:47;;;;;;;3.90;2.17;;;25.80;99.90;;;;;;5032983;28;20025;-48
2023/11/22 10:53:15;;;;;;;3.60;2.40;;;25.80;99.90;;;;;;5031060;28;20459;-48
2023/11/22 10:55:48;;;;;;;4.50;2.97;;;25.80;99.90;;;;;;5031851;28;20063;-49
2023/11/22 10:58:16;;;;;;;4.25;1.92;;;25.90;99.90;;;;;;5032232;28;20482;-49
2023/11/22 11:00:44;;;;;;;6.93;2.08;;;25.90;99.90;;;;;;5033061;28;20029;-49
2023/11/22 11:03:19;;;;;;;4.03;2.17;;;26.00;99.90;;;;;;5031808;28;20132;-49
2023/11/22 11:05:55;;;;;;;9.25;3.40;;;26.00;99.90;;;;;;5032041;28;20036;-49
2023/11/22 11:08:27;;;;;;;6.15;2.88;;;26.00;99.90;;;;;;5032660;28;20048;-49
2023/11/22 11:10:54;;;;;;;11.25;3.78;;;26.00;99.90;;;;;;5033012;28;20029;-49
2023/11/22 11:13:20;;;;;;;;;;;26.10;99.90;;;;;;5032796;28;20033;-50
2023/11/22 11:15:47;;;;;;;13.23;2.97;;;26.10;99.90;;;;;;4998412;28;19914;-50
2023/11/22 11:18:17;;;;;;;6.03;3.17;;;26.10;99.90;;;;;;5012693;28;20053;-50
2023/11/22 11:20:49;;;;;;;7.30;2.63;;;26.10;99.90;;;;;;5012524;28;20026;-49
2023/11/22 11:23:24;;;;;;;4.82;2.45;;;26.20;99.90;;;;;;5017755;28;20405;-50
2023/11/22 11:25:54;;;;;;;8.13;2.40;;;26.20;99.90;;;;;;5032254;28;20479;-50
2023/11/22 11:28:21;;;;;;;8.27;2.20;;;26.20;99.90;;;;;;5033405;28;20036;-50
2023/11/22 11:30:50;;;;;;;4.72;2.55;;;26.20;99.90;;;;;;5031632;28;20025;-50
2023/11/22 11:33:27;;;;;;;5.30;2.45;;;26.20;99.90;;;;;;5031536;28;20025;-50
2023/11/22 11:35:56;;;;;;;6.30;1.38;;;26.30;99.90;;;;;;5032186;28;20497;-51
2023/11/22 11:38:30;;;;;;;3.45;0.82;;;26.30;99.90;;;;;;5014019;28;20033;-50
2023/11/22 11:40:56;;;;;;;2.45;1.02;;;26.30;99.90;;;;;;5031223;28;20068;-50
2023/11/22 11:43:46;;;;;;;7.78;1.25;;;26.30;99.90;;;;;;5032360;28;20049;-49
2023/11/22 11:46:13;;;;;;;8.48;1.70;;;26.20;99.90;;;;;;5032331;28;20049;-49
2023/11/22 11:48:43;;;;;;;9.57;0.75;;;26.20;99.90;;;;;;5030226;28;20028;-49
2023/11/22 11:51:11;;;;;;;2.80;0.60;;;26.20;99.90;;;;;;5031088;28;20130;-51
2023/11/22 11:53:37;;;;;;;3.67;0.70;;;26.20;99.90;;;;;;5031568;28;20487;-53
2023/11/22 11:56:03;;;;;;;7.65;0.77;;;26.20;99.90;;;;;;5029465;28;20049;-52
2023/11/22 11:58:29;;;;;;;5.07;0.80;;;26.10;99.90;;;;;;5030022;28;20029;-55
2023/11/22 12:00:55;;;;;;;10.90;0.95;;;26.10;99.90;;;;;;5030157;28;20404;-53
2023/11/22 12:03:23;;;;;;;3.30;0.52;;;26.10;99.90;;;;;;5031208;28;20045;-50
2023/11/22 12:05:49;;;;;;;4.68;0.38;;;26.10;99.90;;;;;;5024611;28;20033;-50
2023/11/22 12:08:15;;;;;;;8.35;2.10;;;26.10;99.90;;;;;;4994720;28;20415;-52
2023/11/22 12:10:42;;;;;;;5.03;1.42;;;26.10;99.90;;;;;;5012581;28;20022;-53
2023/11/22 12:13:08;;;;;;;4.82;1.58;;;26.10;99.90;;;;;;5012576;28;20026;-52
2023/11/22 12:15:34;;;;;;;5.53;1.38;;;26.10;99.90;;;;;;4994761;28;20100;-50
2023/11/22 12:18:01;;;;;;;7.13;1.33;;;26.10;99.90;;;;;;5015299;28;20076;-52
2023/11/22 12:20:31;;;;;;;4.45;1.40;;;26.10;99.90;;;;;;4993985;28;20545;-52
2023/11/22 12:23:00;;;;;;;8.07;1.35;;;26.10;99.90;;;;;;5016038;28;20022;-51
2023/11/22 12:25:30;;;;;;;2.22;0.80;;;26.10;99.90;;;;;;5023894;28;20040;-52
2023/11/22 12:27:56;;;;;;;3.10;0.60;;;26.10;99.90;;;;;;5014529;28;20022;-50
2023/11/22 12:30:32;;;;;;;3.60;0.55;;;26.10;99.90;;;;;;5015027;28;20028;-51
2023/11/22 12:33:09;;;;;;;5.47;1.05;;;26.10;99.90;;;;;;5030293;28;20433;-49
2023/11/22 12:35:35;;;;;;;5.68;0.82;;;26.10;99.90;;;;;;5032384;28;20079;-49
2023/11/22 12:38:06;;;;;;;8.98;1.90;;;26.10;99.90;;;;;;5031475;28;20029;-49
2023/11/22 12:40:33;;;;;;;3.85;2.17;;;26.10;99.90;;;;;;5032101;28;20029;-49
2023/11/22 12:43:00;;;;;;;7.38;2.38;;;26.20;99.90;;;;;;5031960;28;20029;-49
2023/11/22 12:45:28;;;;;;;;;;;26.20;99.90;;;;;;5032576;28;20125;-49
2023/11/22 12:47:55;;;;;;;7.43;2.53;;;26.30;99.90;;;;;;5032173;28;19940;-49